sensor_id;sensor_type;location;lat;lon;timestamp;P1;durP1;ratioP1;P2;durP2;ratioP2
11791;SDS011;5953;52.372;9.918;2023-09-19T00:00:55;1.27;;;1.00;;
11791;SDS011;5953;52.372;9.918;2023-09-19T00:03:25;2.43;;;1.20;;
11791;SDS011;5953;52.372;9.918;2023-09-19T00:05:55;1.30;;;1.20;;
11791;SDS011;5953;52.372;9.918;2023-09-19T00:08:26;1.17;;;1.10;;
11791;SDS011;5953;52.372;9.918;2023-09-19T00:10:54;1.37;;;1.20;;
11791;SDS011;5953;52.372;9.918;2023-09-19T00:13:22;1.40;;;1.20;;
11791;SDS011;5953;52.372;9.918;2023-09-19T00:15:51;1.30;;;1.20;;
11791;SDS011;5953;52.372;9.918;2023-09-19T00:18:21;1.07;;;1.07;;
11791;SDS011;5953;52.372;9.918;2023-09-19T00:20:58;1.43;;;1.33;;
11791;SDS011;5953;52.372;9.918;2023-09-19T00:23:26;2.33;;;1.13;;
11791;SDS011;5953;52.372;9.918;2023-09-19T00:25:54;1.57;;;1.10;;
11791;SDS011;5953;52.372;9.918;2023-09-19T00:28:26;1.43;;;1.13;;
11791;SDS011;5953;52.372;9.918;2023-09-19T00:30:54;1.70;;;1.30;;
11791;SDS011;5953;52.372;9.918;2023-09-19T00:33:22;3.57;;;1.77;;
11791;SDS011;5953;52.372;9.918;2023-09-19T00:35:50;2.33;;;1.93;;
11791;SDS011;5953;52.372;9.918;2023-09-19T00:38:21;3.13;;;2.23;;
11791;SDS011;5953;52.372;9.918;2023-09-19T00:40:53;2.23;;;1.70;;
11791;SDS011;5953;52.372;9.918;2023-09-19T00:43:26;2.73;;;1.80;;
11791;SDS011;5953;52.372;9.918;2023-09-19T00:45:55;3.00;;;1.90;;
11791;SDS011;5953;52.372;9.918;2023-09-19T00:48:27;2.80;;;1.63;;
11791;SDS011;5953;52.372;9.918;2023-09-19T00:50:56;3.23;;;1.40;;
11791;SDS011;5953;52.372;9.918;2023-09-19T00:53:27;1.70;;;1.60;;
11791;SDS011;5953;52.372;9.918;2023-09-19T00:55:58;4.83;;;2.00;;
11791;SDS011;5953;52.372;9.918;2023-09-19T00:58:26;2.67;;;1.97;;
11791;SDS011;5953;52.372;9.918;2023-09-19T01:01:00;6.43;;;2.30;;
11791;SDS011;5953;52.372;9.918;2023-09-19T01:03:29;3.07;;;2.27;;
11791;SDS011;5953;52.372;9.918;2023-09-19T01:05:58;5.70;;;2.70;;
11791;SDS011;5953;52.372;9.918;2023-09-19T01:08:28;2.70;;;2.50;;
11791;SDS011;5953;52.372;9.918;2023-09-19T01:10:59;3.67;;;2.80;;
11791;SDS011;5953;52.372;9.918;2023-09-19T01:13:31;3.33;;;2.50;;
11791;SDS011;5953;52.372;9.918;2023-09-19T01:16:10;4.30;;;2.50;;
11791;SDS011;5953;52.372;9.918;2023-09-19T01:18:47;4.50;;;2.67;;
11791;SDS011;5953;52.372;9.918;2023-09-19T01:21:26;4.10;;;3.00;;
11791;SDS011;5953;52.372;9.918;2023-09-19T01:24:06;4.40;;;2.73;;
11791;SDS011;5953;52.372;9.918;2023-09-19T01:27:06;3.73;;;2.97;;
11791;SDS011;5953;52.372;9.918;2023-09-19T01:29:51;3.07;;;2.73;;
11791;SDS011;5953;52.372;9.918;2023-09-19T01:32:21;3.63;;;2.80;;
11791;SDS011;5953;52.372;9.918;2023-09-19T01:34:53;4.20;;;3.33;;
11791;SDS011;5953;52.372;9.918;2023-09-19T01:37:24;4.07;;;3.27;;
11791;SDS011;5953;52.372;9.918;2023-09-19T01:39:53;4.70;;;3.43;;
11791;SDS011;5953;52.372;9.918;2023-09-19T01:42:35;7.07;;;3.60;;
11791;SDS011;5953;52.372;9.918;2023-09-19T01:45:09;4.63;;;3.77;;
11791;SDS011;5953;52.372;9.918;2023-09-19T01:47:45;6.13;;;3.73;;
11791;SDS011;5953;52.372;9.918;2023-09-19T01:50:17;4.67;;;3.50;;
11791;SDS011;5953;52.372;9.918;2023-09-19T01:52:57;4.20;;;3.40;;
11791;SDS011;5953;52.372;9.918;2023-09-19T01:55:28;7.50;;;4.00;;
11791;SDS011;5953;52.372;9.918;2023-09-19T01:58:00;9.53;;;3.90;;
11791;SDS011;5953;52.372;9.918;2023-09-19T02:00:34;5.97;;;3.80;;
11791;SDS011;5953;52.372;9.918;2023-09-19T02:03:06;3.70;;;3.10;;
11791;SDS011;5953;52.372;9.918;2023-09-19T02:05:36;5.87;;;3.57;;
11791;SDS011;5953;52.372;9.918;2023-09-19T02:08:05;5.50;;;3.87;;
11791;SDS011;5953;52.372;9.918;2023-09-19T02:10:33;5.33;;;4.10;;
11791;SDS011;5953;52.372;9.918;2023-09-19T02:13:01;4.97;;;3.60;;
11791;SDS011;5953;52.372;9.918;2023-09-19T02:15:32;7.00;;;3.90;;
11791;SDS011;5953;52.372;9.918;2023-09-19T02:18:01;8.07;;;3.73;;
11791;SDS011;5953;52.372;9.918;2023-09-19T02:20:30;5.17;;;3.60;;
11791;SDS011;5953;52.372;9.918;2023-09-19T02:22:59;9.13;;;4.00;;
11791;SDS011;5953;52.372;9.918;2023-09-19T02:25:27;7.20;;;3.97;;
11791;SDS011;5953;52.372;9.918;2023-09-19T02:27:55;7.40;;;4.17;;
11791;SDS011;5953;52.372;9.918;2023-09-19T02:30:24;5.73;;;4.03;;
11791;SDS011;5953;52.372;9.918;2023-09-19T02:32:52;5.47;;;3.90;;
11791;SDS011;5953;52.372;9.918;2023-09-19T02:35:20;6.90;;;4.20;;
11791;SDS011;5953;52.372;9.918;2023-09-19T02:37:50;5.40;;;4.03;;
11791;SDS011;5953;52.372;9.918;2023-09-19T02:40:18;10.33;;;4.40;;
11791;SDS011;5953;52.372;9.918;2023-09-19T02:42:46;7.40;;;3.90;;
11791;SDS011;5953;52.372;9.918;2023-09-19T02:45:16;7.00;;;4.37;;
11791;SDS011;5953;52.372;9.918;2023-09-19T02:47:45;4.57;;;3.83;;
11791;SDS011;5953;52.372;9.918;2023-09-19T02:50:13;5.67;;;4.20;;
11791;SDS011;5953;52.372;9.918;2023-09-19T02:52:43;8.17;;;4.27;;
11791;SDS011;5953;52.372;9.918;2023-09-19T02:55:15;5.73;;;4.23;;
11791;SDS011;5953;52.372;9.918;2023-09-19T02:57:46;6.50;;;4.40;;
11791;SDS011;5953;52.372;9.918;2023-09-19T03:00:14;8.40;;;4.57;;
11791;SDS011;5953;52.372;9.918;2023-09-19T03:02:43;6.27;;;4.20;;
11791;SDS011;5953;52.372;9.918;2023-09-19T03:05:12;4.83;;;4.30;;
11791;SDS011;5953;52.372;9.918;2023-09-19T03:07:40;9.13;;;4.17;;
11791;SDS011;5953;52.372;9.918;2023-09-19T03:10:09;5.00;;;4.37;;
11791;SDS011;5953;52.372;9.918;2023-09-19T03:12:43;8.73;;;4.37;;
11791;SDS011;5953;52.372;9.918;2023-09-19T03:15:11;9.27;;;4.53;;
11791;SDS011;5953;52.372;9.918;2023-09-19T03:17:40;6.17;;;4.27;;
11791;SDS011;5953;52.372;9.918;2023-09-19T03:20:14;6.10;;;4.60;;
11791;SDS011;5953;52.372;9.918;2023-09-19T03:22:44;7.53;;;4.43;;
11791;SDS011;5953;52.372;9.918;2023-09-19T03:25:12;7.80;;;4.23;;
11791;SDS011;5953;52.372;9.918;2023-09-19T03:27:40;4.60;;;3.60;;
11791;SDS011;5953;52.372;9.918;2023-09-19T03:30:10;7.70;;;3.90;;
11791;SDS011;5953;52.372;9.918;2023-09-19T03:32:43;6.90;;;4.13;;
11791;SDS011;5953;52.372;9.918;2023-09-19T03:35:12;8.10;;;4.10;;
11791;SDS011;5953;52.372;9.918;2023-09-19T03:37:41;5.87;;;3.60;;
11791;SDS011;5953;52.372;9.918;2023-09-19T03:40:09;6.30;;;3.63;;
11791;SDS011;5953;52.372;9.918;2023-09-19T03:42:38;4.27;;;3.57;;
11791;SDS011;5953;52.372;9.918;2023-09-19T03:45:08;8.93;;;3.50;;
11791;SDS011;5953;52.372;9.918;2023-09-19T03:47:38;10.97;;;3.90;;
11791;SDS011;5953;52.372;9.918;2023-09-19T03:50:07;7.43;;;3.33;;
11791;SDS011;5953;52.372;9.918;2023-09-19T03:52:37;7.27;;;3.27;;
11791;SDS011;5953;52.372;9.918;2023-09-19T03:55:06;9.07;;;3.37;;
11791;SDS011;5953;52.372;9.918;2023-09-19T03:57:36;11.30;;;3.73;;
11791;SDS011;5953;52.372;9.918;2023-09-19T04:00:04;9.03;;;3.60;;
11791;SDS011;5953;52.372;9.918;2023-09-19T04:02:39;7.63;;;3.13;;
11791;SDS011;5953;52.372;9.918;2023-09-19T04:05:07;6.23;;;3.33;;
11791;SDS011;5953;52.372;9.918;2023-09-19T04:07:36;7.20;;;3.63;;
11791;SDS011;5953;52.372;9.918;2023-09-19T04:10:04;8.07;;;3.33;;
11791;SDS011;5953;52.372;9.918;2023-09-19T04:12:35;9.30;;;3.80;;
11791;SDS011;5953;52.372;9.918;2023-09-19T04:15:03;4.83;;;3.70;;
11791;SDS011;5953;52.372;9.918;2023-09-19T04:17:31;11.23;;;3.43;;
11791;SDS011;5953;52.372;9.918;2023-09-19T04:20:01;8.27;;;3.43;;
11791;SDS011;5953;52.372;9.918;2023-09-19T04:22:33;6.53;;;3.70;;
11791;SDS011;5953;52.372;9.918;2023-09-19T04:25:01;8.43;;;3.30;;
11791;SDS011;5953;52.372;9.918;2023-09-19T04:27:30;5.93;;;3.10;;
11791;SDS011;5953;52.372;9.918;2023-09-19T04:29:58;8.10;;;3.37;;
11791;SDS011;5953;52.372;9.918;2023-09-19T04:32:27;7.60;;;3.27;;
11791;SDS011;5953;52.372;9.918;2023-09-19T04:34:56;6.20;;;3.50;;
11791;SDS011;5953;52.372;9.918;2023-09-19T04:37:28;7.20;;;3.57;;
11791;SDS011;5953;52.372;9.918;2023-09-19T04:39:56;6.13;;;3.30;;
11791;SDS011;5953;52.372;9.918;2023-09-19T04:42:23;8.87;;;3.47;;
11791;SDS011;5953;52.372;9.918;2023-09-19T04:44:51;8.43;;;3.73;;
11791;SDS011;5953;52.372;9.918;2023-09-19T04:47:20;8.23;;;3.30;;
11791;SDS011;5953;52.372;9.918;2023-09-19T04:49:49;8.13;;;3.47;;
11791;SDS011;5953;52.372;9.918;2023-09-19T04:52:16;7.80;;;4.00;;
11791;SDS011;5953;52.372;9.918;2023-09-19T04:54:46;9.20;;;4.33;;
11791;SDS011;5953;52.372;9.918;2023-09-19T04:57:14;8.80;;;3.80;;
11791;SDS011;5953;52.372;9.918;2023-09-19T04:59:42;9.13;;;4.20;;
11791;SDS011;5953;52.372;9.918;2023-09-19T05:02:10;7.50;;;4.20;;
11791;SDS011;5953;52.372;9.918;2023-09-19T05:04:38;7.93;;;4.23;;
11791;SDS011;5953;52.372;9.918;2023-09-19T05:07:06;7.73;;;3.77;;
11791;SDS011;5953;52.372;9.918;2023-09-19T05:09:34;9.87;;;4.60;;
11791;SDS011;5953;52.372;9.918;2023-09-19T05:12:05;9.63;;;4.40;;
11791;SDS011;5953;52.372;9.918;2023-09-19T05:14:33;8.43;;;4.23;;
11791;SDS011;5953;52.372;9.918;2023-09-19T05:17:01;8.30;;;4.80;;
11791;SDS011;5953;52.372;9.918;2023-09-19T05:19:30;7.30;;;5.03;;
11791;SDS011;5953;52.372;9.918;2023-09-19T05:21:58;9.13;;;4.90;;
11791;SDS011;5953;52.372;9.918;2023-09-19T05:24:26;10.67;;;5.83;;
11791;SDS011;5953;52.372;9.918;2023-09-19T05:26:54;8.97;;;5.30;;
11791;SDS011;5953;52.372;9.918;2023-09-19T05:29:24;9.60;;;6.00;;
11791;SDS011;5953;52.372;9.918;2023-09-19T05:31:52;10.77;;;6.43;;
11791;SDS011;5953;52.372;9.918;2023-09-19T05:34:21;7.23;;;5.67;;
11791;SDS011;5953;52.372;9.918;2023-09-19T05:36:49;10.53;;;5.67;;
11791;SDS011;5953;52.372;9.918;2023-09-19T05:39:18;9.33;;;5.30;;
11791;SDS011;5953;52.372;9.918;2023-09-19T05:41:46;10.17;;;6.30;;
11791;SDS011;5953;52.372;9.918;2023-09-19T05:44:14;8.60;;;5.60;;
11791;SDS011;5953;52.372;9.918;2023-09-19T05:46:43;13.17;;;6.90;;
11791;SDS011;5953;52.372;9.918;2023-09-19T05:49:12;13.13;;;6.57;;
11791;SDS011;5953;52.372;9.918;2023-09-19T05:51:40;8.60;;;5.90;;
11791;SDS011;5953;52.372;9.918;2023-09-19T05:54:07;11.90;;;6.03;;
11791;SDS011;5953;52.372;9.918;2023-09-19T05:56:37;14.27;;;5.90;;
11791;SDS011;5953;52.372;9.918;2023-09-19T05:59:05;8.87;;;5.47;;
11791;SDS011;5953;52.372;9.918;2023-09-19T06:01:32;7.50;;;4.63;;
11791;SDS011;5953;52.372;9.918;2023-09-19T06:04:02;10.00;;;5.37;;
11791;SDS011;5953;52.372;9.918;2023-09-19T06:06:31;8.77;;;5.60;;
11791;SDS011;5953;52.372;9.918;2023-09-19T06:09:00;8.13;;;5.20;;
11791;SDS011;5953;52.372;9.918;2023-09-19T06:11:28;9.70;;;5.70;;
11791;SDS011;5953;52.372;9.918;2023-09-19T06:13:58;12.10;;;5.50;;
11791;SDS011;5953;52.372;9.918;2023-09-19T06:16:28;9.03;;;4.83;;
11791;SDS011;5953;52.372;9.918;2023-09-19T06:18:56;8.40;;;4.67;;
11791;SDS011;5953;52.372;9.918;2023-09-19T06:21:26;7.03;;;4.97;;
11791;SDS011;5953;52.372;9.918;2023-09-19T06:23:54;9.77;;;4.90;;
11791;SDS011;5953;52.372;9.918;2023-09-19T06:26:24;11.90;;;5.47;;
11791;SDS011;5953;52.372;9.918;2023-09-19T06:28:53;9.60;;;4.83;;
11791;SDS011;5953;52.372;9.918;2023-09-19T06:31:22;8.90;;;5.63;;
11791;SDS011;5953;52.372;9.918;2023-09-19T06:33:52;8.73;;;5.23;;
11791;SDS011;5953;52.372;9.918;2023-09-19T06:36:20;10.77;;;4.20;;
11791;SDS011;5953;52.372;9.918;2023-09-19T06:38:50;6.70;;;4.30;;
11791;SDS011;5953;52.372;9.918;2023-09-19T06:41:18;8.53;;;4.43;;
11791;SDS011;5953;52.372;9.918;2023-09-19T06:43:47;8.17;;;4.80;;
11791;SDS011;5953;52.372;9.918;2023-09-19T06:46:15;10.70;;;5.80;;
11791;SDS011;5953;52.372;9.918;2023-09-19T06:48:43;11.97;;;5.20;;
11791;SDS011;5953;52.372;9.918;2023-09-19T06:51:13;8.93;;;4.60;;
11791;SDS011;5953;52.372;9.918;2023-09-19T06:53:42;10.13;;;4.97;;
11791;SDS011;5953;52.372;9.918;2023-09-19T06:56:11;16.27;;;5.97;;
11791;SDS011;5953;52.372;9.918;2023-09-19T06:58:39;8.20;;;4.77;;
11791;SDS011;5953;52.372;9.918;2023-09-19T07:01:10;12.47;;;4.10;;
11791;SDS011;5953;52.372;9.918;2023-09-19T07:03:37;11.27;;;5.00;;
11791;SDS011;5953;52.372;9.918;2023-09-19T07:06:06;10.53;;;4.20;;
11791;SDS011;5953;52.372;9.918;2023-09-19T07:08:35;8.93;;;4.00;;
11791;SDS011;5953;52.372;9.918;2023-09-19T07:11:04;7.27;;;3.83;;
11791;SDS011;5953;52.372;9.918;2023-09-19T07:13:34;8.83;;;4.70;;
11791;SDS011;5953;52.372;9.918;2023-09-19T07:16:03;10.37;;;4.33;;
11791;SDS011;5953;52.372;9.918;2023-09-19T07:18:31;8.13;;;3.40;;
11791;SDS011;5953;52.372;9.918;2023-09-19T07:20:59;6.40;;;2.93;;
11791;SDS011;5953;52.372;9.918;2023-09-19T07:23:31;8.13;;;2.83;;
11791;SDS011;5953;52.372;9.918;2023-09-19T07:26:01;10.03;;;3.20;;
11791;SDS011;5953;52.372;9.918;2023-09-19T07:28:31;9.13;;;2.83;;
11791;SDS011;5953;52.372;9.918;2023-09-19T07:31:03;6.60;;;2.73;;
11791;SDS011;5953;52.372;9.918;2023-09-19T07:33:31;7.70;;;3.03;;
11791;SDS011;5953;52.372;9.918;2023-09-19T07:35:59;8.27;;;2.53;;
11791;SDS011;5953;52.372;9.918;2023-09-19T07:38:27;5.90;;;2.90;;
11791;SDS011;5953;52.372;9.918;2023-09-19T07:40:59;7.90;;;2.70;;
11791;SDS011;5953;52.372;9.918;2023-09-19T07:43:28;11.17;;;3.23;;
11791;SDS011;5953;52.372;9.918;2023-09-19T07:45:57;7.50;;;2.63;;
11791;SDS011;5953;52.372;9.918;2023-09-19T07:48:28;4.73;;;2.40;;
11791;SDS011;5953;52.372;9.918;2023-09-19T07:51:01;8.47;;;2.80;;
11791;SDS011;5953;52.372;9.918;2023-09-19T07:53:29;8.93;;;3.00;;
11791;SDS011;5953;52.372;9.918;2023-09-19T07:56:04;8.70;;;2.27;;
11791;SDS011;5953;52.372;9.918;2023-09-19T07:58:33;6.87;;;2.13;;
11791;SDS011;5953;52.372;9.918;2023-09-19T08:01:03;10.47;;;2.90;;
11791;SDS011;5953;52.372;9.918;2023-09-19T08:03:34;9.73;;;2.60;;
11791;SDS011;5953;52.372;9.918;2023-09-19T08:06:06;8.20;;;2.17;;
11791;SDS011;5953;52.372;9.918;2023-09-19T08:08:35;8.63;;;2.63;;
11791;SDS011;5953;52.372;9.918;2023-09-19T08:11:03;7.23;;;2.60;;
11791;SDS011;5953;52.372;9.918;2023-09-19T08:13:38;9.03;;;3.07;;
11791;SDS011;5953;52.372;9.918;2023-09-19T08:16:09;9.13;;;2.87;;
11791;SDS011;5953;52.372;9.918;2023-09-19T08:18:39;9.87;;;2.40;;
11791;SDS011;5953;52.372;9.918;2023-09-19T08:21:07;6.33;;;2.33;;
11791;SDS011;5953;52.372;9.918;2023-09-19T08:23:37;9.60;;;2.67;;
11791;SDS011;5953;52.372;9.918;2023-09-19T08:26:05;5.60;;;2.37;;
11791;SDS011;5953;52.372;9.918;2023-09-19T08:28:34;8.53;;;2.33;;
11791;SDS011;5953;52.372;9.918;2023-09-19T08:31:02;7.20;;;2.27;;
11791;SDS011;5953;52.372;9.918;2023-09-19T08:33:32;5.20;;;2.80;;
11791;SDS011;5953;52.372;9.918;2023-09-19T08:36:01;6.53;;;2.20;;
11791;SDS011;5953;52.372;9.918;2023-09-19T08:38:30;9.90;;;2.23;;
11791;SDS011;5953;52.372;9.918;2023-09-19T08:40:59;6.80;;;2.00;;
11791;SDS011;5953;52.372;9.918;2023-09-19T08:43:27;5.37;;;2.40;;
11791;SDS011;5953;52.372;9.918;2023-09-19T08:45:57;10.83;;;2.60;;
11791;SDS011;5953;52.372;9.918;2023-09-19T08:48:30;4.30;;;1.80;;
11791;SDS011;5953;52.372;9.918;2023-09-19T08:51:00;6.23;;;2.10;;
11791;SDS011;5953;52.372;9.918;2023-09-19T08:53:36;6.17;;;2.40;;
11791;SDS011;5953;52.372;9.918;2023-09-19T08:56:10;5.90;;;1.90;;
11791;SDS011;5953;52.372;9.918;2023-09-19T08:58:43;5.43;;;2.13;;
11791;SDS011;5953;52.372;9.918;2023-09-19T09:01:15;6.47;;;2.10;;
11791;SDS011;5953;52.372;9.918;2023-09-19T09:03:43;7.70;;;2.47;;
11791;SDS011;5953;52.372;9.918;2023-09-19T09:06:16;7.67;;;2.50;;
11791;SDS011;5953;52.372;9.918;2023-09-19T09:08:46;7.17;;;2.10;;
11791;SDS011;5953;52.372;9.918;2023-09-19T09:11:15;6.67;;;2.40;;
11791;SDS011;5953;52.372;9.918;2023-09-19T09:13:43;9.23;;;2.83;;
11791;SDS011;5953;52.372;9.918;2023-09-19T09:16:12;5.40;;;2.27;;
11791;SDS011;5953;52.372;9.918;2023-09-19T09:18:44;6.23;;;2.30;;
11791;SDS011;5953;52.372;9.918;2023-09-19T09:21:12;9.23;;;1.97;;
11791;SDS011;5953;52.372;9.918;2023-09-19T09:23:42;6.53;;;2.50;;
11791;SDS011;5953;52.372;9.918;2023-09-19T09:26:10;7.27;;;2.20;;
11791;SDS011;5953;52.372;9.918;2023-09-19T09:28:44;6.47;;;2.20;;
11791;SDS011;5953;52.372;9.918;2023-09-19T09:31:22;3.60;;;1.73;;
11791;SDS011;5953;52.372;9.918;2023-09-19T09:33:53;7.87;;;2.27;;
11791;SDS011;5953;52.372;9.918;2023-09-19T09:36:33;6.67;;;2.60;;
11791;SDS011;5953;52.372;9.918;2023-09-19T09:39:04;4.07;;;2.00;;
11791;SDS011;5953;52.372;9.918;2023-09-19T09:41:44;3.93;;;2.10;;
11791;SDS011;5953;52.372;9.918;2023-09-19T09:44:12;6.70;;;2.17;;
11791;SDS011;5953;52.372;9.918;2023-09-19T09:46:42;8.90;;;2.07;;
11791;SDS011;5953;52.372;9.918;2023-09-19T09:49:47;8.07;;;2.60;;
11791;SDS011;5953;52.372;9.918;2023-09-19T09:52:44;5.10;;;2.00;;
11791;SDS011;5953;52.372;9.918;2023-09-19T09:55:13;8.10;;;2.40;;
11791;SDS011;5953;52.372;9.918;2023-09-19T09:57:41;4.40;;;2.23;;
11791;SDS011;5953;52.372;9.918;2023-09-19T10:00:11;7.53;;;2.07;;
11791;SDS011;5953;52.372;9.918;2023-09-19T10:02:46;8.67;;;2.40;;
11791;SDS011;5953;52.372;9.918;2023-09-19T10:05:15;7.13;;;2.20;;
11791;SDS011;5953;52.372;9.918;2023-09-19T10:07:49;5.43;;;2.27;;
11791;SDS011;5953;52.372;9.918;2023-09-19T10:10:30;4.63;;;2.00;;
11791;SDS011;5953;52.372;9.918;2023-09-19T10:13:11;6.57;;;1.97;;
11791;SDS011;5953;52.372;9.918;2023-09-19T10:15:42;6.40;;;2.33;;
11791;SDS011;5953;52.372;9.918;2023-09-19T10:18:18;6.10;;;2.27;;
11791;SDS011;5953;52.372;9.918;2023-09-19T10:20:48;5.77;;;2.33;;
11791;SDS011;5953;52.372;9.918;2023-09-19T10:23:17;4.90;;;2.30;;
11791;SDS011;5953;52.372;9.918;2023-09-19T10:25:50;4.60;;;2.07;;
11791;SDS011;5953;52.372;9.918;2023-09-19T10:28:20;9.67;;;2.67;;
11791;SDS011;5953;52.372;9.918;2023-09-19T10:30:50;8.07;;;2.53;;
11791;SDS011;5953;52.372;9.918;2023-09-19T10:33:20;6.10;;;2.63;;
11791;SDS011;5953;52.372;9.918;2023-09-19T10:35:49;7.43;;;2.30;;
11791;SDS011;5953;52.372;9.918;2023-09-19T10:38:18;7.17;;;2.30;;
11791;SDS011;5953;52.372;9.918;2023-09-19T10:40:48;6.80;;;2.27;;
11791;SDS011;5953;52.372;9.918;2023-09-19T10:43:19;4.70;;;2.27;;
11791;SDS011;5953;52.372;9.918;2023-09-19T10:45:48;10.20;;;2.73;;
11791;SDS011;5953;52.372;9.918;2023-09-19T10:48:19;4.43;;;2.20;;
11791;SDS011;5953;52.372;9.918;2023-09-19T10:50:53;7.00;;;2.57;;
11791;SDS011;5953;52.372;9.918;2023-09-19T10:53:32;8.27;;;2.93;;
11791;SDS011;5953;52.372;9.918;2023-09-19T10:56:10;4.37;;;2.30;;
11791;SDS011;5953;52.372;9.918;2023-09-19T10:58:47;7.07;;;2.40;;
11791;SDS011;5953;52.372;9.918;2023-09-19T11:01:16;8.03;;;2.50;;
11791;SDS011;5953;52.372;9.918;2023-09-19T11:03:44;8.33;;;2.60;;
11791;SDS011;5953;52.372;9.918;2023-09-19T11:06:16;6.30;;;2.47;;
11791;SDS011;5953;52.372;9.918;2023-09-19T11:08:52;6.90;;;3.07;;
11791;SDS011;5953;52.372;9.918;2023-09-19T11:11:42;5.17;;;2.40;;
11791;SDS011;5953;52.372;9.918;2023-09-19T11:14:29;7.27;;;2.80;;
11791;SDS011;5953;52.372;9.918;2023-09-19T11:25:50;4.40;;;2.43;;
11791;SDS011;5953;52.372;9.918;2023-09-19T11:28:33;4.60;;;2.20;;
11791;SDS011;5953;52.372;9.918;2023-09-19T11:34:41;6.83;;;2.50;;
11791;SDS011;5953;52.372;9.918;2023-09-19T11:40:29;7.07;;;2.43;;
11791;SDS011;5953;52.372;9.918;2023-09-19T11:42:57;5.60;;;2.20;;
11791;SDS011;5953;52.372;9.918;2023-09-19T11:48:34;3.73;;;2.07;;
11791;SDS011;5953;52.372;9.918;2023-09-19T11:51:15;10.40;;;2.70;;
11791;SDS011;5953;52.372;9.918;2023-09-19T11:53:49;6.77;;;2.57;;
11791;SDS011;5953;52.372;9.918;2023-09-19T11:56:18;5.47;;;2.50;;
11791;SDS011;5953;52.372;9.918;2023-09-19T11:58:49;9.60;;;2.70;;
11791;SDS011;5953;52.372;9.918;2023-09-19T12:01:21;4.27;;;2.40;;
11791;SDS011;5953;52.372;9.918;2023-09-19T12:03:52;8.33;;;2.30;;
11791;SDS011;5953;52.372;9.918;2023-09-19T12:06:24;6.83;;;2.50;;
11791;SDS011;5953;52.372;9.918;2023-09-19T12:08:56;8.37;;;2.80;;
11791;SDS011;5953;52.372;9.918;2023-09-19T12:11:27;9.67;;;2.73;;
11791;SDS011;5953;52.372;9.918;2023-09-19T12:14:01;8.47;;;2.23;;
11791;SDS011;5953;52.372;9.918;2023-09-19T12:16:30;7.33;;;2.77;;
11791;SDS011;5953;52.372;9.918;2023-09-19T12:19:17;5.93;;;2.30;;
11791;SDS011;5953;52.372;9.918;2023-09-19T12:21:54;5.67;;;2.73;;
11791;SDS011;5953;52.372;9.918;2023-09-19T12:24:24;7.03;;;2.97;;
11791;SDS011;5953;52.372;9.918;2023-09-19T12:27:00;5.47;;;2.60;;
11791;SDS011;5953;52.372;9.918;2023-09-19T12:29:31;3.03;;;2.27;;
11791;SDS011;5953;52.372;9.918;2023-09-19T12:32:00;9.43;;;2.43;;
11791;SDS011;5953;52.372;9.918;2023-09-19T12:34:32;8.30;;;2.73;;
11791;SDS011;5953;52.372;9.918;2023-09-19T12:37:07;5.77;;;2.70;;
11791;SDS011;5953;52.372;9.918;2023-09-19T12:39:39;3.20;;;2.00;;
11791;SDS011;5953;52.372;9.918;2023-09-19T12:42:15;4.37;;;2.53;;
11791;SDS011;5953;52.372;9.918;2023-09-19T12:44:44;8.13;;;2.77;;
11791;SDS011;5953;52.372;9.918;2023-09-19T12:47:13;5.07;;;2.23;;
11791;SDS011;5953;52.372;9.918;2023-09-19T12:50:05;7.70;;;2.80;;
11791;SDS011;5953;52.372;9.918;2023-09-19T12:52:42;7.30;;;3.10;;
11791;SDS011;5953;52.372;9.918;2023-09-19T12:55:20;8.10;;;2.70;;
11791;SDS011;5953;52.372;9.918;2023-09-19T12:57:56;8.23;;;2.87;;
11791;SDS011;5953;52.372;9.918;2023-09-19T13:00:34;7.73;;;2.70;;
11791;SDS011;5953;52.372;9.918;2023-09-19T13:03:11;5.73;;;3.10;;
11791;SDS011;5953;52.372;9.918;2023-09-19T13:05:49;7.40;;;2.67;;
11791;SDS011;5953;52.372;9.918;2023-09-19T13:08:20;5.97;;;3.37;;
11791;SDS011;5953;52.372;9.918;2023-09-19T13:13:45;6.53;;;2.53;;
11791;SDS011;5953;52.372;9.918;2023-09-19T13:16:16;7.57;;;2.77;;
11791;SDS011;5953;52.372;9.918;2023-09-19T13:18:49;8.50;;;3.33;;
11791;SDS011;5953;52.372;9.918;2023-09-19T13:21:27;8.60;;;2.83;;
11791;SDS011;5953;52.372;9.918;2023-09-19T13:26:47;6.37;;;2.90;;
11791;SDS011;5953;52.372;9.918;2023-09-19T13:29:15;7.70;;;2.53;;
11791;SDS011;5953;52.372;9.918;2023-09-19T13:31:47;4.17;;;2.47;;
11791;SDS011;5953;52.372;9.918;2023-09-19T13:36:48;5.13;;;2.10;;
11791;SDS011;5953;52.372;9.918;2023-09-19T13:39:16;5.43;;;2.90;;
11791;SDS011;5953;52.372;9.918;2023-09-19T13:41:46;6.57;;;2.97;;
11791;SDS011;5953;52.372;9.918;2023-09-19T13:44:15;9.73;;;2.53;;
11791;SDS011;5953;52.372;9.918;2023-09-19T13:46:44;6.77;;;2.77;;
11791;SDS011;5953;52.372;9.918;2023-09-19T13:49:13;6.00;;;2.77;;
11791;SDS011;5953;52.372;9.918;2023-09-19T13:51:41;4.27;;;2.20;;
11791;SDS011;5953;52.372;9.918;2023-09-19T13:54:11;6.93;;;3.00;;
11791;SDS011;5953;52.372;9.918;2023-09-19T13:56:41;5.40;;;2.27;;
11791;SDS011;5953;52.372;9.918;2023-09-19T13:59:10;7.57;;;2.97;;
11791;SDS011;5953;52.372;9.918;2023-09-19T14:01:37;5.47;;;2.50;;
11791;SDS011;5953;52.372;9.918;2023-09-19T14:04:06;6.37;;;2.00;;
11791;SDS011;5953;52.372;9.918;2023-09-19T14:06:34;5.87;;;2.70;;
11791;SDS011;5953;52.372;9.918;2023-09-19T14:09:03;6.37;;;2.23;;
11791;SDS011;5953;52.372;9.918;2023-09-19T14:11:31;5.77;;;2.30;;
11791;SDS011;5953;52.372;9.918;2023-09-19T14:13:59;5.33;;;2.13;;
11791;SDS011;5953;52.372;9.918;2023-09-19T14:16:28;5.63;;;2.27;;
11791;SDS011;5953;52.372;9.918;2023-09-19T14:18:57;6.90;;;2.47;;
11791;SDS011;5953;52.372;9.918;2023-09-19T14:21:25;6.37;;;2.30;;
11791;SDS011;5953;52.372;9.918;2023-09-19T14:23:53;5.23;;;2.43;;
11791;SDS011;5953;52.372;9.918;2023-09-19T14:26:21;8.87;;;2.47;;
11791;SDS011;5953;52.372;9.918;2023-09-19T14:28:50;7.73;;;2.50;;
11791;SDS011;5953;52.372;9.918;2023-09-19T14:31:18;7.53;;;2.40;;
11791;SDS011;5953;52.372;9.918;2023-09-19T14:33:52;4.33;;;2.67;;
11791;SDS011;5953;52.372;9.918;2023-09-19T14:36:21;7.07;;;2.60;;
11791;SDS011;5953;52.372;9.918;2023-09-19T14:38:51;7.63;;;2.70;;
11791;SDS011;5953;52.372;9.918;2023-09-19T14:41:21;9.50;;;2.73;;
11791;SDS011;5953;52.372;9.918;2023-09-19T14:43:49;7.10;;;2.27;;
11791;SDS011;5953;52.372;9.918;2023-09-19T14:46:16;7.37;;;2.57;;
11791;SDS011;5953;52.372;9.918;2023-09-19T14:48:45;6.27;;;2.63;;
11791;SDS011;5953;52.372;9.918;2023-09-19T14:51:15;6.43;;;2.40;;
11791;SDS011;5953;52.372;9.918;2023-09-19T14:53:45;4.70;;;2.00;;
11791;SDS011;5953;52.372;9.918;2023-09-19T14:56:13;9.47;;;2.20;;
11791;SDS011;5953;52.372;9.918;2023-09-19T14:58:44;7.00;;;2.50;;
11791;SDS011;5953;52.372;9.918;2023-09-19T15:01:13;7.97;;;2.27;;
11791;SDS011;5953;52.372;9.918;2023-09-19T15:03:41;4.87;;;2.30;;
11791;SDS011;5953;52.372;9.918;2023-09-19T15:06:10;5.90;;;2.10;;
11791;SDS011;5953;52.372;9.918;2023-09-19T15:08:43;5.50;;;2.37;;
11791;SDS011;5953;52.372;9.918;2023-09-19T15:11:14;5.00;;;2.30;;
11791;SDS011;5953;52.372;9.918;2023-09-19T15:13:43;6.13;;;2.33;;
11791;SDS011;5953;52.372;9.918;2023-09-19T15:16:12;6.33;;;2.10;;
11791;SDS011;5953;52.372;9.918;2023-09-19T15:18:42;5.90;;;2.73;;
11791;SDS011;5953;52.372;9.918;2023-09-19T15:21:13;4.73;;;2.30;;
11791;SDS011;5953;52.372;9.918;2023-09-19T15:23:43;6.23;;;2.03;;
11791;SDS011;5953;52.372;9.918;2023-09-19T15:26:12;5.80;;;2.30;;
11791;SDS011;5953;52.372;9.918;2023-09-19T15:28:43;7.20;;;2.40;;
11791;SDS011;5953;52.372;9.918;2023-09-19T15:31:12;4.10;;;1.90;;
11791;SDS011;5953;52.372;9.918;2023-09-19T15:33:40;4.50;;;1.97;;
11791;SDS011;5953;52.372;9.918;2023-09-19T15:36:08;6.40;;;2.10;;
11791;SDS011;5953;52.372;9.918;2023-09-19T15:38:56;6.23;;;2.53;;
11791;SDS011;5953;52.372;9.918;2023-09-19T15:41:26;4.17;;;1.80;;
11791;SDS011;5953;52.372;9.918;2023-09-19T15:43:55;5.07;;;2.00;;
11791;SDS011;5953;52.372;9.918;2023-09-19T15:46:25;4.33;;;1.93;;
11791;SDS011;5953;52.372;9.918;2023-09-19T15:48:55;5.33;;;2.10;;